Am Bremen — H9PI — position and weather

sailwx.info

Track history (hours):
 
Tides and Currents Weather Stations Pressure Air Temp Water Temp Dewpoint Dewpoint Depression Visibility Wind Speed Wind Dir Waves Ship Positions

Am Bremen

Last reported at 2018-Feb-17 23:07 UTC. Time now 2018-Feb-22 09:09 UTC.
Position N 42°45' W 069°46'.

Length 190 m; draft 6.3 m.

Type: Cargo ship. MMSI: 373724000.

Date/timePositionNaut miles runAvg speedWind from/ knotsBaromVisibWave heightAir tempDewpointWater temp
2018-Feb-17 23:07N 42°45' W 069°46'311.8
2018-Feb-17 22:51N 42°47' W 069°49'412.1
2018-Feb-17 22:30N 42°49' W 069°54'612.4
2018-Feb-17 22:00N 42°51' W 070°02'612.5
2018-Feb-17 21:30N 42°53' W 070°10'612.5
2018-Feb-17 21:00N 42°56' W 070°18'612.5
2018-Feb-17 20:30N 42°58' W 070°26'612.6
2018-Feb-17 20:00N 43°01' W 070°33'612.2
2018-Feb-17 19:30N 43°03' W 070°41'3 5.8
2018-Feb-17 19:01N 43°05' W 070°44'1 0.0
2018-Feb-16 13:22N 43°05' W 070°46'0 0.0
2018-Feb-16 12:58N 43°05' W 070°46'0 0.0
2018-Feb-15 10:40N 43°05' W 070°46'0 0.0
2018-Feb-15 10:16N 43°05' W 070°46'0 0.0
2018-Feb-15 09:52N 43°05' W 070°46'0 0.0
2018-Feb-15 09:28N 43°05' W 070°46'0 0.0
2018-Feb-15 08:58N 43°05' W 070°46'0 0.0
2018-Feb-15 07:58N 43°05' W 070°46'  
2018-Feb-10 13:34N 43°05' W 070°44'1 5.7
2018-Feb-10 13:19N 43°04' W 070°42'4 5.3
2018-Feb-10 12:29N 43°01' W 070°38'2 4.4
2018-Feb-10 12:00N 43°02' W 070°35'1 2.8
2018-Feb-10 11:30N 43°02' W 070°33'3 6.7
2018-Feb-10 11:00N 43°02' W 070°29'4 7.7
2018-Feb-10 10:30N 43°02' W 070°23'4 8.7
2018-Feb-10 09:59N 43°02' W 070°17'4 6.8
2018-Feb-10 09:28N 43°02' W 070°12'6 4.3
2018-Feb-10 08:06N 43°01' W 070°04'3 7.0
2018-Feb-10 07:42N 42°60' W 070°08'1 7.5
2018-Feb-10 07:30N 42°59' W 070°10'4 7.6
2018-Feb-10 07:00N 42°58' W 070°15'4 7.6
2018-Feb-10 06:30N 42°54' W 070°13'5 9.4
2018-Feb-10 06:00N 42°49' W 070°14'4 7.5
2018-Feb-10 05:30N 42°46' W 070°15'4 8.7
2018-Feb-10 05:00N 42°42' W 070°17'4 7.7
2018-Feb-10 04:30N 42°38' W 070°18'4 7.7
2018-Feb-10 04:00N 42°34' W 070°19'5 9.3
2018-Feb-10 03:30N 42°30' W 070°20'4 8.3
2018-Feb-10 03:00N 42°27' W 070°25'5 9.8
2018-Feb-10 02:30N 42°26' W 070°32'5 9.7
2018-Feb-10 02:00N 42°25' W 070°38'5 9.7
2018-Feb-10 01:30N 42°24' W 070°44'5 9.8
2018-Feb-10 01:00N 42°23' W 070°51'510.1
2018-Feb-10 00:30N 42°20' W 070°57'4 8.9
2018-Feb-10 00:00N 42°21' W 071°02'2 3.4
2018-Feb-09 23:30N 42°23' W 071°02'0 0.1
2018-Feb-09 23:00N 42°23' W 071°02'0 0.0
2018-Feb-09 22:43N 42°23' W 071°02'0 0.0
2018-Feb-09 12:01N 42°23' W 071°02'0 0.3
2018-Feb-09 11:30N 42°23' W 071°02'1 2.7
2018-Feb-09 11:01N 42°22' W 071°03'4 8.4
2018-Feb-09 10:30N 42°20' W 070°57'9 0.5
2018-Feb-08 15:00N 42°25' W 070°47'1 2.9
2018-Feb-08 14:30N 42°24' W 070°45'8 7.7
2018-Feb-08 13:30N 42°22' W 070°35'9 9.4
2018-Feb-08 12:30N 42°21' W 070°23'14 9.0
2018-Feb-08 11:00N 42°20' W 070°04'4 7.7
2018-Feb-08 10:30N 42°19' W 069°59'4 8.4
2018-Feb-08 10:00N 42°15' W 069°57'  
Track history (hours):
 
Tides and Currents Weather Stations Pressure Air Temp Water Temp Dewpoint Dewpoint Depression Visibility Wind Speed Wind Dir Waves Ship Positions

Am Bremen

Last reported at 2018-Feb-17 23:07 UTC. Time now 2018-Feb-22 09:09 UTC.
Position N 42°45' W 069°46'.

Length 190 m; draft 6.3 m.

Type: Cargo ship. MMSI: 373724000.

Date/timePositionNaut miles runAvg speedWind from/ knotsBaromVisibWave heightAir tempDewpointWater temp
2018-Feb-17 23:07N 42°45' W 069°46'311.8
2018-Feb-17 22:51N 42°47' W 069°49'412.1
2018-Feb-17 22:30N 42°49' W 069°54'612.4
2018-Feb-17 22:00N 42°51' W 070°02'612.5
2018-Feb-17 21:30N 42°53' W 070°10'612.5
2018-Feb-17 21:00N 42°56' W 070°18'612.5
2018-Feb-17 20:30N 42°58' W 070°26'612.6
2018-Feb-17 20:00N 43°01' W 070°33'612.2
2018-Feb-17 19:30N 43°03' W 070°41'3 5.8
2018-Feb-17 19:01N 43°05' W 070°44'1 0.0
2018-Feb-16 13:22N 43°05' W 070°46'0 0.0
2018-Feb-16 12:58N 43°05' W 070°46'0 0.0
2018-Feb-15 10:40N 43°05' W 070°46'0 0.0
2018-Feb-15 10:16N 43°05' W 070°46'0 0.0
2018-Feb-15 09:52N 43°05' W 070°46'0 0.0
2018-Feb-15 09:28N 43°05' W 070°46'0 0.0
2018-Feb-15 08:58N 43°05' W 070°46'0 0.0
2018-Feb-15 07:58N 43°05' W 070°46'  
2018-Feb-10 13:34N 43°05' W 070°44'1 5.7
2018-Feb-10 13:19N 43°04' W 070°42'4 5.3
2018-Feb-10 12:29N 43°01' W 070°38'2 4.4
2018-Feb-10 12:00N 43°02' W 070°35'1 2.8
2018-Feb-10 11:30N 43°02' W 070°33'3 6.7
2018-Feb-10 11:00N 43°02' W 070°29'4 7.7
2018-Feb-10 10:30N 43°02' W 070°23'4 8.7
2018-Feb-10 09:59N 43°02' W 070°17'4 6.8
2018-Feb-10 09:28N 43°02' W 070°12'6 4.3
2018-Feb-10 08:06N 43°01' W 070°04'3 7.0
2018-Feb-10 07:42N 42°60' W 070°08'1 7.5
2018-Feb-10 07:30N 42°59' W 070°10'4 7.6
2018-Feb-10 07:00N 42°58' W 070°15'4 7.6
2018-Feb-10 06:30N 42°54' W 070°13'5 9.4
2018-Feb-10 06:00N 42°49' W 070°14'4 7.5
2018-Feb-10 05:30N 42°46' W 070°15'4 8.7
2018-Feb-10 05:00N 42°42' W 070°17'4 7.7
2018-Feb-10 04:30N 42°38' W 070°18'4 7.7
2018-Feb-10 04:00N 42°34' W 070°19'5 9.3
2018-Feb-10 03:30N 42°30' W 070°20'4 8.3
2018-Feb-10 03:00N 42°27' W 070°25'5 9.8
2018-Feb-10 02:30N 42°26' W 070°32'5 9.7
2018-Feb-10 02:00N 42°25' W 070°38'5 9.7
2018-Feb-10 01:30N 42°24' W 070°44'5 9.8
2018-Feb-10 01:00N 42°23' W 070°51'510.1
2018-Feb-10 00:30N 42°20' W 070°57'4 8.9
2018-Feb-10 00:00N 42°21' W 071°02'2 3.4
2018-Feb-09 23:30N 42°23' W 071°02'0 0.1
2018-Feb-09 23:00N 42°23' W 071°02'0 0.0
2018-Feb-09 22:43N 42°23' W 071°02'0 0.0
2018-Feb-09 12:01N 42°23' W 071°02'0 0.3
2018-Feb-09 11:30N 42°23' W 071°02'1 2.7
2018-Feb-09 11:01N 42°22' W 071°03'4 8.4
2018-Feb-09 10:30N 42°20' W 070°57'9 0.5
2018-Feb-08 15:00N 42°25' W 070°47'1 2.9
2018-Feb-08 14:30N 42°24' W 070°45'8 7.7
2018-Feb-08 13:30N 42°22' W 070°35'9 9.4
2018-Feb-08 12:30N 42°21' W 070°23'14 9.0
2018-Feb-08 11:00N 42°20' W 070°04'4 7.7
2018-Feb-08 10:30N 42°19' W 069°59'4 8.4
2018-Feb-08 10:00N 42°15' W 069°57'  

Dump ship's entire track history